sensor_id;sensor_type;location;lat;lon;timestamp;P1;durP1;ratioP1;P2;durP2;ratioP2
17844;SDS011;9047;53.486;10.218;2023-05-24T00:02:16;24.50;;;4.70;;
17844;SDS011;9047;53.486;10.218;2023-05-24T00:04:44;25.05;;;5.28;;
17844;SDS011;9047;53.486;10.218;2023-05-24T00:07:10;26.05;;;5.63;;
17844;SDS011;9047;53.486;10.218;2023-05-24T00:09:38;25.63;;;4.85;;
17844;SDS011;9047;53.486;10.218;2023-05-24T00:12:05;24.58;;;4.75;;
17844;SDS011;9047;53.486;10.218;2023-05-24T00:14:34;26.20;;;5.10;;
17844;SDS011;9047;53.486;10.218;2023-05-24T00:17:01;28.27;;;4.95;;
17844;SDS011;9047;53.486;10.218;2023-05-24T00:19:28;22.73;;;5.10;;
17844;SDS011;9047;53.486;10.218;2023-05-24T00:21:55;25.10;;;5.30;;
17844;SDS011;9047;53.486;10.218;2023-05-24T00:24:22;24.13;;;4.88;;
17844;SDS011;9047;53.486;10.218;2023-05-24T00:26:49;19.77;;;4.80;;
17844;SDS011;9047;53.486;10.218;2023-05-24T00:29:16;26.65;;;5.03;;
17844;SDS011;9047;53.486;10.218;2023-05-24T00:31:44;28.35;;;6.05;;
17844;SDS011;9047;53.486;10.218;2023-05-24T00:34:12;26.90;;;5.90;;
17844;SDS011;9047;53.486;10.218;2023-05-24T00:36:39;28.58;;;5.85;;
17844;SDS011;9047;53.486;10.218;2023-05-24T00:39:05;30.90;;;5.00;;
17844;SDS011;9047;53.486;10.218;2023-05-24T00:41:32;25.30;;;5.68;;
17844;SDS011;9047;53.486;10.218;2023-05-24T00:43:59;27.38;;;5.40;;
17844;SDS011;9047;53.486;10.218;2023-05-24T00:46:27;25.13;;;5.60;;
17844;SDS011;9047;53.486;10.218;2023-05-24T00:48:57;28.13;;;5.72;;
17844;SDS011;9047;53.486;10.218;2023-05-24T00:51:25;27.88;;;5.70;;
17844;SDS011;9047;53.486;10.218;2023-05-24T00:53:52;29.70;;;5.63;;
17844;SDS011;9047;53.486;10.218;2023-05-24T00:56:20;29.35;;;6.05;;
17844;SDS011;9047;53.486;10.218;2023-05-24T00:58:47;25.27;;;5.40;;
17844;SDS011;9047;53.486;10.218;2023-05-24T01:01:18;23.40;;;5.45;;
17844;SDS011;9047;53.486;10.218;2023-05-24T01:03:49;32.35;;;5.72;;
17844;SDS011;9047;53.486;10.218;2023-05-24T01:06:19;27.52;;;5.45;;
17844;SDS011;9047;53.486;10.218;2023-05-24T01:08:52;26.42;;;5.80;;
17844;SDS011;9047;53.486;10.218;2023-05-24T01:11:30;35.40;;;5.78;;
17844;SDS011;9047;53.486;10.218;2023-05-24T01:14:09;32.20;;;5.70;;
17844;SDS011;9047;53.486;10.218;2023-05-24T01:16:48;26.90;;;5.97;;
17844;SDS011;9047;53.486;10.218;2023-05-24T01:19:33;31.27;;;5.50;;
17844;SDS011;9047;53.486;10.218;2023-05-24T01:25:44;33.25;;;5.75;;
17844;SDS011;9047;53.486;10.218;2023-05-24T01:28:18;31.00;;;6.50;;
17844;SDS011;9047;53.486;10.218;2023-05-24T01:30:46;25.10;;;5.18;;
17844;SDS011;9047;53.486;10.218;2023-05-24T01:33:14;29.85;;;5.75;;
17844;SDS011;9047;53.486;10.218;2023-05-24T01:35:41;30.52;;;5.88;;
17844;SDS011;9047;53.486;10.218;2023-05-24T01:38:08;26.65;;;4.68;;
17844;SDS011;9047;53.486;10.218;2023-05-24T01:40:36;28.17;;;5.88;;
17844;SDS011;9047;53.486;10.218;2023-05-24T01:43:06;28.38;;;5.35;;
17844;SDS011;9047;53.486;10.218;2023-05-24T01:45:45;28.17;;;6.15;;
17844;SDS011;9047;53.486;10.218;2023-05-24T01:48:18;31.17;;;5.50;;
17844;SDS011;9047;53.486;10.218;2023-05-24T01:50:51;23.30;;;5.05;;
17844;SDS011;9047;53.486;10.218;2023-05-24T01:53:20;33.67;;;6.05;;
17844;SDS011;9047;53.486;10.218;2023-05-24T01:55:50;35.42;;;6.13;;
17844;SDS011;9047;53.486;10.218;2023-05-24T01:58:20;32.65;;;5.75;;
17844;SDS011;9047;53.486;10.218;2023-05-24T02:00:50;29.30;;;5.68;;
17844;SDS011;9047;53.486;10.218;2023-05-24T02:03:17;27.75;;;5.38;;
17844;SDS011;9047;53.486;10.218;2023-05-24T02:05:45;29.52;;;5.95;;
17844;SDS011;9047;53.486;10.218;2023-05-24T02:08:13;29.73;;;5.82;;
17844;SDS011;9047;53.486;10.218;2023-05-24T02:10:40;35.65;;;5.82;;
17844;SDS011;9047;53.486;10.218;2023-05-24T02:13:07;27.73;;;5.13;;
17844;SDS011;9047;53.486;10.218;2023-05-24T02:15:35;28.60;;;5.60;;
17844;SDS011;9047;53.486;10.218;2023-05-24T02:18:07;29.48;;;6.05;;
17844;SDS011;9047;53.486;10.218;2023-05-24T02:20:35;33.38;;;6.22;;
17844;SDS011;9047;53.486;10.218;2023-05-24T02:23:03;28.33;;;5.60;;
17844;SDS011;9047;53.486;10.218;2023-05-24T02:25:30;26.27;;;6.13;;
17844;SDS011;9047;53.486;10.218;2023-05-24T02:28:08;23.83;;;4.95;;
17844;SDS011;9047;53.486;10.218;2023-05-24T02:30:35;27.42;;;5.45;;
17844;SDS011;9047;53.486;10.218;2023-05-24T02:33:02;30.02;;;6.05;;
17844;SDS011;9047;53.486;10.218;2023-05-24T02:35:30;30.23;;;5.78;;
17844;SDS011;9047;53.486;10.218;2023-05-24T02:37:58;27.67;;;5.88;;
17844;SDS011;9047;53.486;10.218;2023-05-24T02:40:25;31.27;;;6.28;;
17844;SDS011;9047;53.486;10.218;2023-05-24T02:42:52;25.83;;;5.60;;
17844;SDS011;9047;53.486;10.218;2023-05-24T02:45:19;27.98;;;6.03;;
17844;SDS011;9047;53.486;10.218;2023-05-24T02:47:46;34.47;;;6.30;;
17844;SDS011;9047;53.486;10.218;2023-05-24T02:50:13;30.85;;;5.88;;
17844;SDS011;9047;53.486;10.218;2023-05-24T02:52:43;26.20;;;5.97;;
17844;SDS011;9047;53.486;10.218;2023-05-24T02:55:10;25.60;;;5.40;;
17844;SDS011;9047;53.486;10.218;2023-05-24T02:57:37;30.48;;;6.53;;
17844;SDS011;9047;53.486;10.218;2023-05-24T03:00:05;31.15;;;6.60;;
17844;SDS011;9047;53.486;10.218;2023-05-24T03:02:35;32.13;;;6.22;;
17844;SDS011;9047;53.486;10.218;2023-05-24T03:05:02;26.38;;;5.75;;
17844;SDS011;9047;53.486;10.218;2023-05-24T03:07:30;28.02;;;5.70;;
17844;SDS011;9047;53.486;10.218;2023-05-24T03:09:58;25.67;;;6.13;;
17844;SDS011;9047;53.486;10.218;2023-05-24T03:12:25;30.27;;;6.70;;
17844;SDS011;9047;53.486;10.218;2023-05-24T03:14:52;31.20;;;6.43;;
17844;SDS011;9047;53.486;10.218;2023-05-24T03:17:19;30.77;;;6.28;;
17844;SDS011;9047;53.486;10.218;2023-05-24T03:19:46;35.38;;;7.13;;
17844;SDS011;9047;53.486;10.218;2023-05-24T03:22:13;32.42;;;6.60;;
17844;SDS011;9047;53.486;10.218;2023-05-24T03:24:40;27.88;;;6.10;;
17844;SDS011;9047;53.486;10.218;2023-05-24T03:27:11;24.25;;;6.38;;
17844;SDS011;9047;53.486;10.218;2023-05-24T03:29:38;24.60;;;6.00;;
17844;SDS011;9047;53.486;10.218;2023-05-24T03:32:05;21.77;;;5.65;;
17844;SDS011;9047;53.486;10.218;2023-05-24T03:34:33;29.15;;;6.22;;
17844;SDS011;9047;53.486;10.218;2023-05-24T03:37:02;32.20;;;6.80;;
17844;SDS011;9047;53.486;10.218;2023-05-24T03:39:29;34.97;;;6.35;;
17844;SDS011;9047;53.486;10.218;2023-05-24T03:41:56;28.77;;;6.07;;
17844;SDS011;9047;53.486;10.218;2023-05-24T03:44:25;30.75;;;6.82;;
17844;SDS011;9047;53.486;10.218;2023-05-24T03:46:51;28.33;;;6.55;;
17844;SDS011;9047;53.486;10.218;2023-05-24T03:49:19;29.58;;;6.18;;
17844;SDS011;9047;53.486;10.218;2023-05-24T03:51:46;29.13;;;6.03;;
17844;SDS011;9047;53.486;10.218;2023-05-24T03:54:13;30.60;;;6.70;;
17844;SDS011;9047;53.486;10.218;2023-05-24T03:56:42;35.80;;;6.22;;
17844;SDS011;9047;53.486;10.218;2023-05-24T03:59:09;37.13;;;7.38;;
17844;SDS011;9047;53.486;10.218;2023-05-24T04:01:37;32.15;;;6.68;;
17844;SDS011;9047;53.486;10.218;2023-05-24T04:04:07;31.42;;;6.13;;
17844;SDS011;9047;53.486;10.218;2023-05-24T04:06:45;28.08;;;5.95;;
17844;SDS011;9047;53.486;10.218;2023-05-24T04:09:13;27.48;;;6.35;;
17844;SDS011;9047;53.486;10.218;2023-05-24T04:11:40;32.75;;;7.03;;
17844;SDS011;9047;53.486;10.218;2023-05-24T04:14:07;27.48;;;6.60;;
17844;SDS011;9047;53.486;10.218;2023-05-24T04:16:39;28.85;;;6.55;;
17844;SDS011;9047;53.486;10.218;2023-05-24T04:19:09;27.90;;;5.97;;
17844;SDS011;9047;53.486;10.218;2023-05-24T04:21:37;29.08;;;6.38;;
17844;SDS011;9047;53.486;10.218;2023-05-24T04:24:04;25.90;;;6.18;;
17844;SDS011;9047;53.486;10.218;2023-05-24T04:26:33;31.02;;;6.22;;
17844;SDS011;9047;53.486;10.218;2023-05-24T04:29:01;29.13;;;5.68;;
17844;SDS011;9047;53.486;10.218;2023-05-24T04:31:29;30.30;;;5.95;;
17844;SDS011;9047;53.486;10.218;2023-05-24T04:33:58;25.70;;;6.47;;
17844;SDS011;9047;53.486;10.218;2023-05-24T04:36:26;33.00;;;7.45;;
17844;SDS011;9047;53.486;10.218;2023-05-24T04:38:55;29.27;;;7.07;;
17844;SDS011;9047;53.486;10.218;2023-05-24T04:41:27;31.58;;;6.53;;
17844;SDS011;9047;53.486;10.218;2023-05-24T04:43:55;27.48;;;6.90;;
17844;SDS011;9047;53.486;10.218;2023-05-24T04:46:23;29.25;;;6.55;;
17844;SDS011;9047;53.486;10.218;2023-05-24T04:48:51;30.45;;;8.25;;
17844;SDS011;9047;53.486;10.218;2023-05-24T04:51:24;31.10;;;7.55;;
17844;SDS011;9047;53.486;10.218;2023-05-24T04:53:51;34.33;;;7.70;;
17844;SDS011;9047;53.486;10.218;2023-05-24T04:56:17;33.35;;;7.50;;
17844;SDS011;9047;53.486;10.218;2023-05-24T04:58:44;33.30;;;7.13;;
17844;SDS011;9047;53.486;10.218;2023-05-24T05:01:12;32.28;;;7.63;;
17844;SDS011;9047;53.486;10.218;2023-05-24T05:03:40;33.42;;;7.70;;
17844;SDS011;9047;53.486;10.218;2023-05-24T05:06:10;26.92;;;6.90;;
17844;SDS011;9047;53.486;10.218;2023-05-24T05:08:38;35.60;;;7.38;;
17844;SDS011;9047;53.486;10.218;2023-05-24T05:11:04;27.40;;;7.38;;
17844;SDS011;9047;53.486;10.218;2023-05-24T05:13:32;28.48;;;6.68;;
17844;SDS011;9047;53.486;10.218;2023-05-24T05:16:00;26.65;;;6.90;;
17844;SDS011;9047;53.486;10.218;2023-05-24T05:18:27;31.30;;;7.80;;
17844;SDS011;9047;53.486;10.218;2023-05-24T05:20:55;26.73;;;7.18;;
17844;SDS011;9047;53.486;10.218;2023-05-24T05:23:25;32.83;;;7.53;;
17844;SDS011;9047;53.486;10.218;2023-05-24T05:25:53;34.45;;;7.53;;
17844;SDS011;9047;53.486;10.218;2023-05-24T05:28:22;32.47;;;7.68;;
17844;SDS011;9047;53.486;10.218;2023-05-24T05:30:49;27.98;;;7.15;;
17844;SDS011;9047;53.486;10.218;2023-05-24T05:33:16;31.50;;;6.95;;
17844;SDS011;9047;53.486;10.218;2023-05-24T05:35:43;27.23;;;7.03;;
17844;SDS011;9047;53.486;10.218;2023-05-24T05:38:10;26.83;;;7.13;;
17844;SDS011;9047;53.486;10.218;2023-05-24T05:40:37;27.17;;;7.00;;
17844;SDS011;9047;53.486;10.218;2023-05-24T05:43:06;24.88;;;7.05;;
17844;SDS011;9047;53.486;10.218;2023-05-24T05:45:33;33.38;;;7.70;;
17844;SDS011;9047;53.486;10.218;2023-05-24T05:48:00;24.42;;;8.10;;
17844;SDS011;9047;53.486;10.218;2023-05-24T05:50:27;29.00;;;8.30;;
17844;SDS011;9047;53.486;10.218;2023-05-24T05:52:55;27.92;;;8.18;;
17844;SDS011;9047;53.486;10.218;2023-05-24T05:55:23;26.55;;;7.95;;
17844;SDS011;9047;53.486;10.218;2023-05-24T05:57:50;31.40;;;9.05;;
17844;SDS011;9047;53.486;10.218;2023-05-24T06:00:20;29.52;;;8.93;;
17844;SDS011;9047;53.486;10.218;2023-05-24T06:02:47;31.95;;;9.00;;
17844;SDS011;9047;53.486;10.218;2023-05-24T06:05:14;29.63;;;8.95;;
17844;SDS011;9047;53.486;10.218;2023-05-24T06:07:44;27.77;;;8.85;;
17844;SDS011;9047;53.486;10.218;2023-05-24T06:10:11;32.38;;;9.10;;
17844;SDS011;9047;53.486;10.218;2023-05-24T06:12:38;26.88;;;8.30;;
17844;SDS011;9047;53.486;10.218;2023-05-24T06:15:06;31.17;;;9.07;;
17844;SDS011;9047;53.486;10.218;2023-05-24T06:17:38;31.73;;;9.27;;
17844;SDS011;9047;53.486;10.218;2023-05-24T06:20:06;29.48;;;9.38;;
17844;SDS011;9047;53.486;10.218;2023-05-24T06:22:35;32.05;;;9.25;;
17844;SDS011;9047;53.486;10.218;2023-05-24T06:25:04;35.22;;;9.10;;
17844;SDS011;9047;53.486;10.218;2023-05-24T06:27:33;27.75;;;8.43;;
17844;SDS011;9047;53.486;10.218;2023-05-24T06:30:00;34.05;;;8.90;;
17844;SDS011;9047;53.486;10.218;2023-05-24T06:32:27;28.27;;;8.80;;
17844;SDS011;9047;53.486;10.218;2023-05-24T06:34:57;31.90;;;9.40;;
17844;SDS011;9047;53.486;10.218;2023-05-24T06:37:24;34.65;;;9.30;;
17844;SDS011;9047;53.486;10.218;2023-05-24T06:39:55;36.00;;;9.27;;
17844;SDS011;9047;53.486;10.218;2023-05-24T06:42:22;30.73;;;9.13;;
17844;SDS011;9047;53.486;10.218;2023-05-24T06:44:51;36.83;;;8.80;;
17844;SDS011;9047;53.486;10.218;2023-05-24T06:47:20;29.83;;;8.95;;
17844;SDS011;9047;53.486;10.218;2023-05-24T06:49:47;29.85;;;8.68;;
17844;SDS011;9047;53.486;10.218;2023-05-24T06:52:18;34.72;;;8.90;;
17844;SDS011;9047;53.486;10.218;2023-05-24T06:54:48;30.38;;;8.85;;
17844;SDS011;9047;53.486;10.218;2023-05-24T06:57:17;40.78;;;9.30;;
17844;SDS011;9047;53.486;10.218;2023-05-24T06:59:49;25.90;;;7.75;;
17844;SDS011;9047;53.486;10.218;2023-05-24T07:02:16;35.20;;;9.15;;
17844;SDS011;9047;53.486;10.218;2023-05-24T07:04:43;27.25;;;9.07;;
17844;SDS011;9047;53.486;10.218;2023-05-24T07:07:10;37.25;;;8.10;;
17844;SDS011;9047;53.486;10.218;2023-05-24T07:09:39;34.72;;;8.10;;
17844;SDS011;9047;53.486;10.218;2023-05-24T07:12:08;37.97;;;7.78;;
17844;SDS011;9047;53.486;10.218;2023-05-24T07:14:35;32.78;;;7.43;;
17844;SDS011;9047;53.486;10.218;2023-05-24T07:17:02;28.27;;;6.72;;
17844;SDS011;9047;53.486;10.218;2023-05-24T07:19:30;29.73;;;7.38;;
17844;SDS011;9047;53.486;10.218;2023-05-24T07:21:58;34.78;;;7.47;;
17844;SDS011;9047;53.486;10.218;2023-05-24T07:24:25;32.83;;;7.05;;
17844;SDS011;9047;53.486;10.218;2023-05-24T07:26:55;29.40;;;6.70;;
17844;SDS011;9047;53.486;10.218;2023-05-24T07:29:22;25.65;;;5.90;;
17844;SDS011;9047;53.486;10.218;2023-05-24T07:31:53;24.20;;;5.75;;
17844;SDS011;9047;53.486;10.218;2023-05-24T07:34:21;22.85;;;5.65;;
17844;SDS011;9047;53.486;10.218;2023-05-24T07:36:51;30.38;;;6.32;;
17844;SDS011;9047;53.486;10.218;2023-05-24T07:39:18;23.38;;;5.40;;
17844;SDS011;9047;53.486;10.218;2023-05-24T07:41:45;28.48;;;5.75;;
17844;SDS011;9047;53.486;10.218;2023-05-24T07:44:13;23.23;;;4.75;;
17844;SDS011;9047;53.486;10.218;2023-05-24T07:46:42;19.55;;;4.90;;
17844;SDS011;9047;53.486;10.218;2023-05-24T07:49:09;22.30;;;5.15;;
17844;SDS011;9047;53.486;10.218;2023-05-24T07:51:36;19.33;;;4.60;;
17844;SDS011;9047;53.486;10.218;2023-05-24T07:54:04;22.15;;;4.65;;
17844;SDS011;9047;53.486;10.218;2023-05-24T07:56:32;20.23;;;5.15;;
17844;SDS011;9047;53.486;10.218;2023-05-24T07:59:00;20.75;;;4.88;;
17844;SDS011;9047;53.486;10.218;2023-05-24T08:01:30;19.70;;;4.72;;
17844;SDS011;9047;53.486;10.218;2023-05-24T08:03:58;18.90;;;4.72;;
17844;SDS011;9047;53.486;10.218;2023-05-24T08:06:25;16.95;;;4.43;;
17844;SDS011;9047;53.486;10.218;2023-05-24T08:08:54;26.17;;;5.47;;
17844;SDS011;9047;53.486;10.218;2023-05-24T08:11:22;22.92;;;4.82;;
17844;SDS011;9047;53.486;10.218;2023-05-24T08:13:50;25.73;;;5.47;;
17844;SDS011;9047;53.486;10.218;2023-05-24T08:16:17;28.25;;;5.72;;
17844;SDS011;9047;53.486;10.218;2023-05-24T08:18:47;27.45;;;5.43;;
17844;SDS011;9047;53.486;10.218;2023-05-24T08:21:14;25.00;;;5.45;;
17844;SDS011;9047;53.486;10.218;2023-05-24T08:23:41;32.03;;;6.75;;
17844;SDS011;9047;53.486;10.218;2023-05-24T08:26:08;26.33;;;5.65;;
17844;SDS011;9047;53.486;10.218;2023-05-24T08:28:37;25.63;;;5.72;;
17844;SDS011;9047;53.486;10.218;2023-05-24T08:31:04;19.10;;;5.07;;
17844;SDS011;9047;53.486;10.218;2023-05-24T08:33:33;22.02;;;5.55;;
17844;SDS011;9047;53.486;10.218;2023-05-24T08:36:01;26.85;;;5.53;;
17844;SDS011;9047;53.486;10.218;2023-05-24T08:38:28;24.25;;;5.35;;
17844;SDS011;9047;53.486;10.218;2023-05-24T08:40:55;25.35;;;5.30;;
17844;SDS011;9047;53.486;10.218;2023-05-24T08:43:27;28.08;;;6.07;;
17844;SDS011;9047;53.486;10.218;2023-05-24T08:45:55;23.00;;;5.07;;
17844;SDS011;9047;53.486;10.218;2023-05-24T08:48:24;28.30;;;5.97;;
17844;SDS011;9047;53.486;10.218;2023-05-24T08:50:52;25.27;;;5.60;;
17844;SDS011;9047;53.486;10.218;2023-05-24T08:53:29;26.40;;;5.55;;
17844;SDS011;9047;53.486;10.218;2023-05-24T08:56:02;21.00;;;4.97;;
17844;SDS011;9047;53.486;10.218;2023-05-24T08:58:34;22.50;;;5.35;;
17844;SDS011;9047;53.486;10.218;2023-05-24T09:01:03;19.92;;;5.03;;
17844;SDS011;9047;53.486;10.218;2023-05-24T09:03:31;22.80;;;5.55;;
17844;SDS011;9047;53.486;10.218;2023-05-24T09:05:59;22.10;;;5.65;;
17844;SDS011;9047;53.486;10.218;2023-05-24T09:08:29;18.58;;;5.05;;
17844;SDS011;9047;53.486;10.218;2023-05-24T09:10:59;21.05;;;5.60;;
17844;SDS011;9047;53.486;10.218;2023-05-24T09:13:27;20.55;;;5.30;;
17844;SDS011;9047;53.486;10.218;2023-05-24T09:15:55;21.10;;;5.65;;
17844;SDS011;9047;53.486;10.218;2023-05-24T09:18:24;20.27;;;5.40;;
17844;SDS011;9047;53.486;10.218;2023-05-24T09:20:51;21.27;;;5.30;;
17844;SDS011;9047;53.486;10.218;2023-05-24T09:23:18;20.55;;;5.25;;
17844;SDS011;9047;53.486;10.218;2023-05-24T09:25:47;20.75;;;5.85;;
17844;SDS011;9047;53.486;10.218;2023-05-24T09:28:14;19.35;;;4.70;;
17844;SDS011;9047;53.486;10.218;2023-05-24T09:30:43;20.00;;;5.57;;
17844;SDS011;9047;53.486;10.218;2023-05-24T09:33:23;25.10;;;5.78;;
17844;SDS011;9047;53.486;10.218;2023-05-24T09:35:57;21.88;;;5.40;;
17844;SDS011;9047;53.486;10.218;2023-05-24T09:38:25;25.15;;;5.78;;
17844;SDS011;9047;53.486;10.218;2023-05-24T09:40:59;23.20;;;5.35;;
17844;SDS011;9047;53.486;10.218;2023-05-24T09:43:27;22.73;;;5.85;;
17844;SDS011;9047;53.486;10.218;2023-05-24T09:45:55;19.08;;;4.80;;
17844;SDS011;9047;53.486;10.218;2023-05-24T09:48:24;20.40;;;5.22;;
17844;SDS011;9047;53.486;10.218;2023-05-24T09:50:58;19.30;;;5.07;;
17844;SDS011;9047;53.486;10.218;2023-05-24T09:53:28;21.80;;;5.53;;
17844;SDS011;9047;53.486;10.218;2023-05-24T09:55:59;19.27;;;5.18;;
17844;SDS011;9047;53.486;10.218;2023-05-24T09:58:28;25.65;;;5.57;;
17844;SDS011;9047;53.486;10.218;2023-05-24T10:01:09;23.45;;;5.22;;
17844;SDS011;9047;53.486;10.218;2023-05-24T10:03:42;26.73;;;5.90;;
17844;SDS011;9047;53.486;10.218;2023-05-24T10:06:19;23.70;;;5.38;;
17844;SDS011;9047;53.486;10.218;2023-05-24T10:08:48;19.05;;;5.03;;
17844;SDS011;9047;53.486;10.218;2023-05-24T10:11:17;16.63;;;4.60;;
17844;SDS011;9047;53.486;10.218;2023-05-24T10:13:45;20.90;;;5.10;;
17844;SDS011;9047;53.486;10.218;2023-05-24T10:16:13;20.42;;;4.93;;
17844;SDS011;9047;53.486;10.218;2023-05-24T10:18:41;20.65;;;5.00;;
17844;SDS011;9047;53.486;10.218;2023-05-24T10:21:10;21.77;;;5.50;;
17844;SDS011;9047;53.486;10.218;2023-05-24T10:23:41;16.80;;;4.40;;
17844;SDS011;9047;53.486;10.218;2023-05-24T10:26:09;15.98;;;4.72;;
17844;SDS011;9047;53.486;10.218;2023-05-24T10:28:40;20.40;;;5.50;;
17844;SDS011;9047;53.486;10.218;2023-05-24T10:31:10;20.05;;;5.20;;
17844;SDS011;9047;53.486;10.218;2023-05-24T10:33:41;16.77;;;4.97;;
17844;SDS011;9047;53.486;10.218;2023-05-24T10:36:12;24.05;;;5.20;;
17844;SDS011;9047;53.486;10.218;2023-05-24T10:38:42;20.10;;;5.60;;
17844;SDS011;9047;53.486;10.218;2023-05-24T10:41:11;18.90;;;5.18;;
17844;SDS011;9047;53.486;10.218;2023-05-24T10:43:41;21.13;;;4.80;;
17844;SDS011;9047;53.486;10.218;2023-05-24T10:46:14;19.02;;;5.07;;
17844;SDS011;9047;53.486;10.218;2023-05-24T10:48:41;15.73;;;4.85;;
17844;SDS011;9047;53.486;10.218;2023-05-24T10:51:28;16.58;;;4.80;;
17844;SDS011;9047;53.486;10.218;2023-05-24T10:54:10;17.73;;;4.60;;
17844;SDS011;9047;53.486;10.218;2023-05-24T10:56:40;15.55;;;4.03;;
17844;SDS011;9047;53.486;10.218;2023-05-24T10:59:10;16.80;;;4.18;;
17844;SDS011;9047;53.486;10.218;2023-05-24T11:01:54;20.85;;;4.55;;
17844;SDS011;9047;53.486;10.218;2023-05-24T11:04:23;15.48;;;4.50;;
17844;SDS011;9047;53.486;10.218;2023-05-24T11:06:53;13.60;;;3.95;;
17844;SDS011;9047;53.486;10.218;2023-05-24T11:09:22;14.45;;;4.40;;
17844;SDS011;9047;53.486;10.218;2023-05-24T11:11:53;15.00;;;4.13;;
17844;SDS011;9047;53.486;10.218;2023-05-24T11:14:23;14.98;;;4.25;;
17844;SDS011;9047;53.486;10.218;2023-05-24T11:16:53;18.35;;;4.47;;
17844;SDS011;9047;53.486;10.218;2023-05-24T11:19:21;15.07;;;3.90;;
17844;SDS011;9047;53.486;10.218;2023-05-24T11:21:49;18.65;;;4.35;;
17844;SDS011;9047;53.486;10.218;2023-05-24T11:24:19;14.10;;;4.32;;
17844;SDS011;9047;53.486;10.218;2023-05-24T11:26:47;16.70;;;4.30;;
17844;SDS011;9047;53.486;10.218;2023-05-24T11:29:16;14.90;;;4.07;;
17844;SDS011;9047;53.486;10.218;2023-05-24T11:31:48;15.45;;;3.92;;
17844;SDS011;9047;53.486;10.218;2023-05-24T11:34:16;16.10;;;4.18;;
17844;SDS011;9047;53.486;10.218;2023-05-24T11:36:43;13.70;;;3.88;;
17844;SDS011;9047;53.486;10.218;2023-05-24T11:39:11;14.98;;;4.35;;
17844;SDS011;9047;53.486;10.218;2023-05-24T11:41:39;13.02;;;4.00;;
17844;SDS011;9047;53.486;10.218;2023-05-24T11:44:10;12.88;;;4.07;;
17844;SDS011;9047;53.486;10.218;2023-05-24T11:46:38;13.82;;;3.85;;
17844;SDS011;9047;53.486;10.218;2023-05-24T11:49:10;10.70;;;4.00;;
17844;SDS011;9047;53.486;10.218;2023-05-24T11:51:38;13.77;;;4.03;;
17844;SDS011;9047;53.486;10.218;2023-05-24T11:54:06;13.65;;;3.78;;
17844;SDS011;9047;53.486;10.218;2023-05-24T11:56:33;13.88;;;3.78;;
17844;SDS011;9047;53.486;10.218;2023-05-24T11:59:07;13.48;;;4.05;;
17844;SDS011;9047;53.486;10.218;2023-05-24T12:05:08;14.65;;;4.47;;
17844;SDS011;9047;53.486;10.218;2023-05-24T12:07:38;14.27;;;4.20;;
17844;SDS011;9047;53.486;10.218;2023-05-24T12:10:06;10.82;;;4.00;;
17844;SDS011;9047;53.486;10.218;2023-05-24T12:12:34;14.50;;;3.75;;
17844;SDS011;9047;53.486;10.218;2023-05-24T12:15:01;15.85;;;4.45;;
17844;SDS011;9047;53.486;10.218;2023-05-24T12:17:29;18.63;;;4.53;;
17844;SDS011;9047;53.486;10.218;2023-05-24T12:19:57;14.45;;;4.18;;
17844;SDS011;9047;53.486;10.218;2023-05-24T12:22:28;16.67;;;4.00;;
17844;SDS011;9047;53.486;10.218;2023-05-24T12:24:57;18.13;;;4.57;;
17844;SDS011;9047;53.486;10.218;2023-05-24T12:27:24;15.18;;;4.05;;
17844;SDS011;9047;53.486;10.218;2023-05-24T12:29:55;13.80;;;4.57;;
17844;SDS011;9047;53.486;10.218;2023-05-24T12:32:22;15.18;;;4.35;;
17844;SDS011;9047;53.486;10.218;2023-05-24T12:34:49;16.05;;;4.50;;
17844;SDS011;9047;53.486;10.218;2023-05-24T12:37:16;16.70;;;4.20;;
17844;SDS011;9047;53.486;10.218;2023-05-24T12:39:46;14.93;;;3.85;;
17844;SDS011;9047;53.486;10.218;2023-05-24T12:42:19;15.35;;;4.47;;
17844;SDS011;9047;53.486;10.218;2023-05-24T12:44:48;14.30;;;3.60;;
17844;SDS011;9047;53.486;10.218;2023-05-24T12:47:18;16.75;;;4.25;;
17844;SDS011;9047;53.486;10.218;2023-05-24T12:49:46;13.15;;;3.92;;
17844;SDS011;9047;53.486;10.218;2023-05-24T12:52:15;12.43;;;3.70;;
17844;SDS011;9047;53.486;10.218;2023-05-24T12:54:42;14.05;;;4.40;;
17844;SDS011;9047;53.486;10.218;2023-05-24T12:57:12;13.80;;;4.38;;
17844;SDS011;9047;53.486;10.218;2023-05-24T12:59:40;16.48;;;4.30;;
17844;SDS011;9047;53.486;10.218;2023-05-24T13:02:07;13.85;;;4.28;;
17844;SDS011;9047;53.486;10.218;2023-05-24T13:04:35;13.05;;;4.22;;
17844;SDS011;9047;53.486;10.218;2023-05-24T13:07:04;14.77;;;3.90;;
17844;SDS011;9047;53.486;10.218;2023-05-24T13:09:30;13.90;;;4.03;;
17844;SDS011;9047;53.486;10.218;2023-05-24T13:11:58;13.93;;;3.70;;
17844;SDS011;9047;53.486;10.218;2023-05-24T13:14:26;13.93;;;4.45;;
17844;SDS011;9047;53.486;10.218;2023-05-24T13:16:53;15.98;;;4.20;;
17844;SDS011;9047;53.486;10.218;2023-05-24T13:19:20;13.98;;;4.32;;
17844;SDS011;9047;53.486;10.218;2023-05-24T13:21:49;18.15;;;4.53;;
17844;SDS011;9047;53.486;10.218;2023-05-24T13:24:16;18.00;;;4.22;;
17844;SDS011;9047;53.486;10.218;2023-05-24T13:26:44;17.25;;;4.20;;
17844;SDS011;9047;53.486;10.218;2023-05-24T13:29:11;11.02;;;3.53;;
17844;SDS011;9047;53.486;10.218;2023-05-24T13:31:43;15.80;;;4.55;;
17844;SDS011;9047;53.486;10.218;2023-05-24T13:34:10;12.80;;;4.00;;
17844;SDS011;9047;53.486;10.218;2023-05-24T13:36:37;13.88;;;3.88;;
17844;SDS011;9047;53.486;10.218;2023-05-24T13:39:05;14.82;;;4.22;;
17844;SDS011;9047;53.486;10.218;2023-05-24T13:41:34;15.77;;;4.80;;
17844;SDS011;9047;53.486;10.218;2023-05-24T13:44:01;15.60;;;4.20;;
17844;SDS011;9047;53.486;10.218;2023-05-24T13:46:28;12.68;;;3.92;;
17844;SDS011;9047;53.486;10.218;2023-05-24T13:48:57;15.35;;;4.78;;
